createdAt,value
2022-11-27T06:01:09.441Z,101061.69
2022-11-27T06:03:39.046Z,101057.53
2022-11-27T06:06:08.394Z,101059.16
2022-11-27T06:08:37.569Z,101057.16
2022-11-27T06:11:08.506Z,101059.63
2022-11-27T06:13:36.546Z,101052.91
2022-11-27T06:16:09.884Z,101050.72
2022-11-27T06:18:37.860Z,101045.94
2022-11-27T06:21:09.496Z,101053.25
2022-11-27T06:23:37.492Z,101046.97
2022-11-27T06:26:15.869Z,101051.22
2022-11-27T06:28:44.123Z,101084.00
2022-11-27T06:31:18.252Z,101087.00
2022-11-27T06:33:46.566Z,101090.81
2022-11-27T06:36:14.582Z,101088.31
2022-11-27T06:38:42.563Z,101086.59
2022-11-27T06:41:11.657Z,101080.06
2022-11-27T06:43:39.744Z,101075.13
2022-11-27T06:46:08.928Z,101070.66
2022-11-27T06:48:38.334Z,101072.63
2022-11-27T06:51:07.434Z,101075.38
2022-11-27T06:53:37.564Z,101069.69
2022-11-27T06:56:05.880Z,101072.50
2022-11-27T06:58:34.024Z,101067.72
2022-11-27T07:01:02.413Z,101072.94
2022-11-27T07:03:30.435Z,101073.47
2022-11-27T07:06:02.091Z,101064.00
2022-11-27T07:08:30.093Z,101062.88
2022-11-27T07:11:02.668Z,101066.81
2022-11-27T07:13:30.705Z,101065.78
2022-11-27T07:16:00.973Z,101063.66
2022-11-27T07:18:29.030Z,101074.31
2022-11-27T07:20:57.024Z,101073.34
2022-11-27T07:23:26.411Z,101072.59
2022-11-27T07:25:54.413Z,101064.72
2022-11-27T07:28:22.362Z,101046.56
2022-11-27T07:30:55.725Z,101046.31
2022-11-27T07:33:23.781Z,101047.13
2022-11-27T07:35:51.703Z,101041.50
2022-11-27T07:38:19.651Z,101025.47
2022-11-27T07:40:48.957Z,101006.16
2022-11-27T07:43:16.882Z,101006.69
2022-11-27T07:45:44.883Z,101009.00
2022-11-27T07:48:12.889Z,101038.00
2022-11-27T07:50:40.887Z,101044.94
2022-11-27T07:53:08.830Z,101047.63
2022-11-27T07:55:38.995Z,101057.31
2022-11-27T07:58:08.449Z,101068.19
2022-11-27T08:00:36.598Z,101069.34
2022-11-27T08:03:04.599Z,101074.34
2022-11-27T08:05:34.846Z,101084.53
2022-11-27T08:08:04.413Z,101095.88
2022-11-27T08:10:32.646Z,101093.59
2022-11-27T08:13:00.782Z,101097.28
2022-11-27T08:15:30.132Z,101097.75
2022-11-27T08:17:58.155Z,101098.03
2022-11-27T08:20:26.230Z,101099.56
2022-11-27T08:22:58.135Z,101106.25
2022-11-27T08:25:29.223Z,101100.91
2022-11-27T08:27:57.159Z,101107.06
2022-11-27T08:30:25.221Z,101109.28
2022-11-27T08:32:54.633Z,101107.16
2022-11-27T08:35:22.636Z,101112.47
2022-11-27T08:37:50.784Z,101114.59
2022-11-27T08:40:18.977Z,101095.28
2022-11-27T08:42:46.911Z,101095.44
2022-11-27T08:45:14.987Z,101090.84
2022-11-27T08:47:43.536Z,101072.25
2022-11-27T08:50:13.025Z,101076.72
2022-11-27T08:52:41.031Z,101076.03
2022-11-27T08:55:09.851Z,101071.72
2022-11-27T08:57:37.989Z,101069.69
2022-11-27T09:00:07.701Z,101071.75
2022-11-27T09:02:35.716Z,101059.56
2022-11-27T09:05:05.835Z,101052.69
2022-11-27T09:07:35.272Z,101058.75
2022-11-27T09:10:03.306Z,101050.25
2022-11-27T09:12:31.268Z,101056.31
2022-11-27T09:14:59.191Z,101047.78
2022-11-27T09:17:27.218Z,101040.22
2022-11-27T09:19:55.203Z,101039.00
2022-11-27T09:22:23.198Z,101035.56
2022-11-27T09:24:52.596Z,101035.22
2022-11-27T09:27:20.525Z,101022.56
2022-11-27T09:29:49.653Z,101032.03
2022-11-27T09:32:17.663Z,101034.88
2022-11-27T09:34:45.795Z,101027.22
2022-11-27T09:37:13.787Z,101030.00
2022-11-27T09:39:41.794Z,101018.13
2022-11-27T09:42:14.152Z,101016.72
2022-11-27T09:44:45.446Z,101025.34
2022-11-27T09:47:16.387Z,101020.44
2022-11-27T09:49:46.462Z,101025.28
2022-11-27T09:52:19.066Z,101030.66
2022-11-27T09:54:54.397Z,101013.03
2022-11-27T09:57:26.933Z,101015.91
2022-11-27T09:59:54.950Z,101021.25
2022-11-27T10:02:26.497Z,101027.69
2022-11-27T10:08:06.079Z,101011.06
2022-11-27T10:10:40.286Z,101015.44
2022-11-27T10:13:15.960Z,101004.47
2022-11-27T10:15:45.646Z,101018.13
2022-11-27T10:18:16.167Z,101012.63
2022-11-27T10:20:46.900Z,101003.19
2022-11-27T10:23:19.783Z,101009.69
2022-11-27T10:25:49.296Z,100998.94
2022-11-27T10:28:24.837Z,101006.94
2022-11-27T10:30:54.146Z,101004.19
2022-11-27T10:33:25.183Z,100992.78
2022-11-27T10:35:53.117Z,100997.91
2022-11-27T10:38:22.086Z,100992.41
2022-11-27T10:40:53.573Z,100985.94
2022-11-27T10:43:23.548Z,100984.63
2022-11-27T10:45:52.845Z,100968.13
2022-11-27T10:48:20.829Z,100978.13
2022-11-27T10:50:48.811Z,100975.16
2022-11-27T10:53:20.910Z,100972.31
2022-11-27T10:56:06.402Z,100964.28
2022-11-27T10:58:37.670Z,100973.47
2022-11-27T11:01:07.012Z,100968.50
2022-11-27T11:03:35.138Z,100963.88
2022-11-27T11:06:20.122Z,100963.72
2022-11-27T11:08:49.741Z,100960.91
2022-11-27T11:11:26.390Z,100957.34
2022-11-27T11:13:56.132Z,100948.28
2022-11-27T11:16:27.333Z,100941.53
2022-11-27T11:18:58.214Z,100934.84
2022-11-27T11:21:28.389Z,100930.50
2022-11-27T11:24:00.039Z,100936.16
2022-11-27T11:26:29.652Z,100928.00
2022-11-27T11:28:59.641Z,100930.94
2022-11-27T11:31:30.388Z,100924.19
2022-11-27T11:33:59.883Z,100934.94
2022-11-27T11:36:27.913Z,100919.53
2022-11-27T11:38:55.904Z,100919.00
2022-11-27T11:41:24.555Z,100921.25
2022-11-27T11:43:59.036Z,100913.91
2022-11-27T11:46:28.611Z,100912.06
2022-11-27T11:49:01.573Z,100913.31
2022-11-27T11:52:08.892Z,100903.97
2022-11-27T11:54:59.238Z,100912.41
2022-11-27T11:58:00.613Z,100900.44
2022-11-27T12:00:43.730Z,100899.44
2022-11-27T12:03:33.551Z,100899.03
2022-11-27T12:06:14.024Z,100893.81
2022-11-27T12:08:52.873Z,100892.13
2022-11-27T12:11:22.301Z,100880.81
2022-11-27T12:13:56.542Z,100888.44
2022-11-27T12:16:27.599Z,100891.53
2022-11-27T12:19:04.416Z,100889.59
2022-11-27T12:21:37.163Z,100884.50
2022-11-27T12:24:11.632Z,100879.72
2022-11-27T12:26:46.647Z,100869.22
2022-11-27T12:29:34.409Z,100875.28
2022-11-27T12:32:23.978Z,100876.56
2022-11-27T12:34:59.893Z,100881.03
2022-11-27T12:37:34.865Z,100880.47
2022-11-27T12:40:11.221Z,100887.84
2022-11-27T12:42:41.389Z,100877.91
2022-11-27T12:45:18.636Z,100877.00
2022-11-27T12:47:49.889Z,100884.28
2022-11-27T12:50:19.381Z,100880.00
2022-11-27T12:52:49.249Z,100876.63
2022-11-27T12:55:18.504Z,100879.72
2022-11-27T12:57:48.263Z,100860.50
2022-11-27T13:00:17.962Z,100873.25
2022-11-27T13:02:51.142Z,100862.81
2022-11-27T13:05:20.595Z,100870.72
2022-11-27T13:07:50.050Z,100873.94
2022-11-27T13:10:21.823Z,100869.03
2022-11-27T13:12:51.734Z,100865.09
2022-11-27T13:15:24.016Z,100860.63
2022-11-27T13:17:57.710Z,100869.16
2022-11-27T13:20:28.675Z,100860.78
2022-11-27T13:22:56.649Z,100868.66
2022-11-27T13:25:24.684Z,100866.19
2022-11-27T13:27:52.856Z,100863.22
2022-11-27T13:30:22.679Z,100864.94
2022-11-27T13:32:52.140Z,100876.09
2022-11-27T13:35:23.781Z,100873.81
2022-11-27T13:37:57.511Z,100872.13
2022-11-27T13:40:27.938Z,100863.09
2022-11-27T13:42:56.931Z,100863.34
2022-11-27T13:45:27.048Z,100867.81
2022-11-27T13:47:55.134Z,100868.31
2022-11-27T13:50:29.686Z,100871.56
2022-11-27T13:53:00.637Z,100870.31
2022-11-27T13:55:29.844Z,100872.53
2022-11-27T13:57:59.450Z,100879.56
2022-11-27T14:00:35.587Z,100875.84
2022-11-27T14:03:03.624Z,100879.59
2022-11-27T14:05:40.852Z,100874.38
2022-11-27T14:08:18.222Z,100874.50
2022-11-27T14:10:50.874Z,100874.88
2022-11-27T14:13:21.427Z,100878.53
2022-11-27T14:16:01.777Z,100873.78
2022-11-27T14:18:30.312Z,100877.19
2022-11-27T14:21:01.359Z,100875.31
2022-11-27T14:23:33.527Z,100869.94
2022-11-27T14:26:14.713Z,100866.56
2022-11-27T14:28:44.117Z,100870.34
2022-11-27T14:31:23.103Z,100860.78
2022-11-27T14:34:14.034Z,100864.78
2022-11-27T14:36:40.536Z,100860.53
2022-11-27T14:39:09.238Z,100857.44
2022-11-27T14:41:37.234Z,100847.00
2022-11-27T14:44:05.919Z,100856.25
2022-11-27T14:46:34.154Z,100853.84
2022-11-27T14:49:02.125Z,100848.31
2022-11-27T14:51:31.036Z,100857.28
2022-11-27T14:54:01.420Z,100850.78
2022-11-27T14:56:30.573Z,100859.16
2022-11-27T14:58:58.548Z,100851.28
2022-11-27T15:01:27.541Z,100852.75
2022-11-27T15:03:59.067Z,100846.97
2022-11-27T15:06:27.269Z,100850.88
2022-11-27T15:09:23.615Z,100851.38
2022-11-27T15:11:55.636Z,100854.28
2022-11-27T15:14:24.558Z,100856.75
2022-11-27T15:16:52.805Z,100851.66
2022-11-27T15:19:27.564Z,100851.19
2022-11-27T15:21:55.498Z,100861.16
2022-11-27T15:24:34.175Z,100859.22
2022-11-27T15:27:17.827Z,100854.34
2022-11-27T15:30:00.937Z,100853.25
2022-11-27T15:32:36.123Z,100850.47
2022-11-27T15:35:14.606Z,100855.09
2022-11-27T15:37:43.992Z,100860.53
2022-11-27T15:40:32.449Z,100857.28
2022-11-27T15:43:03.235Z,100862.03
2022-11-27T15:45:33.274Z,100855.84
2022-11-27T15:48:03.085Z,100857.78
2022-11-27T15:50:32.487Z,100855.09
2022-11-27T15:53:02.160Z,100850.78
2022-11-27T15:55:33.415Z,100847.09
2022-11-27T15:58:04.731Z,100852.81
2022-11-27T16:00:34.451Z,100852.06
2022-11-27T16:03:03.876Z,100850.25
2022-11-27T16:05:32.183Z,100853.91
2022-11-27T16:08:01.701Z,100859.25
2022-11-27T16:10:31.097Z,100854.75
2022-11-27T16:13:00.619Z,100850.25
2022-11-27T16:15:33.145Z,100856.09
2022-11-27T16:18:02.976Z,100858.03
2022-11-27T16:20:32.768Z,100859.25
2022-11-27T16:23:02.040Z,100856.72
2022-11-27T16:25:31.831Z,100849.81
2022-11-27T16:28:03.232Z,100847.59
2022-11-27T16:30:34.639Z,100843.72
2022-11-27T16:33:04.576Z,100837.41
2022-11-27T16:35:34.275Z,100842.75
2022-11-27T16:38:04.074Z,100848.09
2022-11-27T16:40:34.934Z,100845.66
2022-11-27T16:43:04.497Z,100837.69
2022-11-27T16:45:36.779Z,100844.72
2022-11-27T16:48:06.771Z,100845.19
2022-11-27T16:50:36.498Z,100841.28
2022-11-27T16:53:06.136Z,100843.25
2022-11-27T16:55:35.872Z,100845.94
2022-11-27T16:58:05.510Z,100849.31
2022-11-27T17:00:37.350Z,100848.22
2022-11-27T17:03:06.823Z,100850.53
2022-11-27T17:05:39.647Z,100844.19
2022-11-27T17:08:09.360Z,100841.31
2022-11-27T17:10:39.104Z,100845.19
2022-11-27T17:13:08.940Z,100842.75
2022-11-27T17:15:40.844Z,100843.50
2022-11-27T17:18:12.937Z,100838.03
2022-11-27T17:20:43.226Z,100840.56
2022-11-27T17:23:13.159Z,100840.56
2022-11-27T17:25:42.981Z,100837.88
2022-11-27T17:28:12.832Z,100840.56
2022-11-27T17:30:44.360Z,100838.72
2022-11-27T17:33:14.264Z,100836.19
2022-11-27T17:35:44.421Z,100833.66
2022-11-27T17:38:14.490Z,100841.78
2022-11-27T17:40:44.351Z,100827.72
2022-11-27T17:43:14.093Z,100829.53
2022-11-27T17:45:45.664Z,100826.03
2022-11-27T17:48:15.643Z,100826.03
2022-11-27T17:50:45.656Z,100826.97
2022-11-27T17:53:15.604Z,100826.03
2022-11-27T17:55:45.488Z,100821.66
2022-11-27T17:58:15.550Z,100818.97
2022-11-27T18:00:49.865Z,100818.00
2022-11-27T18:03:19.804Z,100819.72
2022-11-27T18:05:49.843Z,100818.75
2022-11-27T18:08:19.647Z,100817.28
2022-11-27T18:10:49.485Z,100817.56
2022-11-27T18:13:19.259Z,100817.56
2022-11-27T18:15:50.740Z,100811.38
2022-11-27T18:18:20.655Z,100805.66
2022-11-27T18:20:51.197Z,100813.66
2022-11-27T18:23:21.000Z,100820.22
2022-11-27T18:25:50.821Z,100813.19
2022-11-27T18:28:20.819Z,100807.84
2022-11-27T18:30:52.049Z,100813.31
2022-11-27T18:33:24.112Z,100814.28
2022-11-27T18:35:58.081Z,100809.78
2022-11-27T18:38:27.989Z,100802.75
2022-11-27T18:40:58.318Z,100804.00
2022-11-27T18:43:28.242Z,100804.69
2022-11-27T18:45:59.931Z,100804.34
2022-11-27T18:48:30.012Z,100803.63
2022-11-27T18:51:09.296Z,100815.25
2022-11-27T18:53:39.304Z,100804.59
2022-11-27T18:56:10.247Z,100812.72
2022-11-27T18:58:40.166Z,100814.44
2022-11-27T19:01:12.761Z,100815.88
2022-11-27T19:03:43.138Z,100818.19
2022-11-27T19:06:13.952Z,100804.97
2022-11-27T19:08:44.597Z,100802.28
2022-11-27T19:11:17.766Z,100811.38
2022-11-27T19:13:48.314Z,100810.28
2022-11-27T19:16:21.019Z,100813.81
2022-11-27T19:18:50.909Z,100815.63
2022-11-27T19:21:21.648Z,100808.38
2022-11-27T19:23:51.665Z,100813.47
2022-11-27T19:26:23.008Z,100816.81
2022-11-27T19:28:53.156Z,100808.84
2022-11-27T19:31:25.030Z,100814.03
2022-11-27T19:33:55.194Z,100818.06
2022-11-27T19:36:26.989Z,100813.31
2022-11-27T19:38:57.352Z,100810.66
2022-11-27T19:41:29.631Z,100812.69
2022-11-27T19:43:59.604Z,100819.72
2022-11-27T19:46:31.658Z,100826.75
2022-11-27T19:49:02.272Z,100820.97
2022-11-27T19:51:33.915Z,100828.72
2022-11-27T19:54:10.048Z,100826.31
2022-11-27T19:56:43.301Z,100829.81
2022-11-27T19:59:13.323Z,100836.84
2022-11-27T20:01:45.038Z,100839.41
2022-11-27T20:04:15.343Z,100831.13
2022-11-27T20:06:45.497Z,100828.22
2022-11-27T20:09:16.341Z,100826.41
2022-11-27T20:11:49.328Z,100822.06
2022-11-27T20:14:19.569Z,100822.06
2022-11-27T20:16:51.409Z,100819.50
2022-11-27T20:19:24.123Z,100821.44
2022-11-27T20:21:56.147Z,100821.31
2022-11-27T20:24:26.245Z,100821.44
2022-11-27T20:26:56.345Z,100809.56
2022-11-27T20:29:26.393Z,100813.09
2022-11-27T20:31:58.391Z,100809.84
2022-11-27T20:34:30.407Z,100813.69
2022-11-27T20:37:00.438Z,100817.31
2022-11-27T20:39:32.832Z,100817.56
2022-11-27T20:42:02.922Z,100822.03
2022-11-27T20:44:33.063Z,100819.25
2022-11-27T20:47:04.692Z,100817.56
2022-11-27T20:49:34.856Z,100816.59
2022-11-27T20:52:05.629Z,100819.03
2022-11-27T20:54:35.603Z,100812.63
2022-11-27T20:57:05.494Z,100815.16
2022-11-27T20:59:34.444Z,100815.16
2022-11-27T21:02:05.441Z,100807.97
2022-11-27T21:04:34.805Z,100811.75
2022-11-27T21:07:03.804Z,100802.78
2022-11-27T21:09:32.616Z,100802.19
2022-11-27T21:12:01.767Z,100794.28
2022-11-27T21:14:30.798Z,100796.22
2022-11-27T21:17:04.450Z,100790.66
2022-11-27T21:19:34.935Z,100781.94
2022-11-27T21:22:03.622Z,100790.03
2022-11-27T21:24:32.196Z,100782.91
2022-11-27T21:27:00.635Z,100787.75
2022-11-27T21:29:28.805Z,100782.44
2022-11-27T21:31:57.345Z,100784.59
2022-11-27T21:34:25.735Z,100779.25
2022-11-27T21:36:55.068Z,100779.53
2022-11-27T21:39:24.624Z,100775.03
2022-11-27T21:41:54.329Z,100775.03
2022-11-27T21:44:22.556Z,100766.31
2022-11-27T21:46:50.556Z,100762.06
2022-11-27T21:49:19.294Z,100764.00
2022-11-27T21:51:47.223Z,100770.06
2022-11-27T21:54:17.665Z,100770.06
2022-11-27T21:56:45.647Z,100769.94
2022-11-27T21:59:14.422Z,100775.16
2022-11-27T22:01:42.483Z,100775.38
2022-11-27T22:04:10.553Z,100769.59
2022-11-27T22:06:39.211Z,100769.59
2022-11-27T22:09:11.876Z,100770.56
2022-11-27T22:11:44.561Z,100762.56
2022-11-27T22:14:12.778Z,100768.84
2022-11-27T22:16:45.141Z,100773.34
2022-11-27T22:19:14.516Z,100772.38
2022-11-27T22:21:42.629Z,100762.56
2022-11-27T22:24:15.081Z,100761.59
2022-11-27T22:26:48.216Z,100762.19
2022-11-27T22:29:16.176Z,100752.13
2022-11-27T22:31:44.351Z,100754.31
2022-11-27T22:34:12.323Z,100744.88
2022-11-27T22:36:40.286Z,100742.56
2022-11-27T22:39:08.511Z,100743.16
2022-11-27T22:41:37.193Z,100739.53
2022-11-27T22:44:07.654Z,100735.88
2022-11-27T22:46:36.500Z,100735.63
2022-11-27T22:49:05.501Z,100726.22
2022-11-27T22:51:34.553Z,100726.66
2022-11-27T22:54:02.606Z,100732.97
2022-11-27T22:56:30.643Z,100731.28
2022-11-27T22:59:24.671Z,100731.16
2022-11-27T23:01:49.707Z,100729.22
2022-11-27T23:04:17.697Z,100723.66
2022-11-27T23:06:48.171Z,100716.97
2022-11-27T23:09:16.426Z,100727.13
2022-11-27T23:11:44.495Z,100719.84
2022-11-27T23:14:12.721Z,100723.00
2022-11-27T23:16:40.753Z,100725.28
2022-11-27T23:19:10.141Z,100728.69
2022-11-27T23:21:38.914Z,100721.41
2022-11-27T23:24:07.319Z,100721.13
2022-11-27T23:26:35.368Z,100723.94
2022-11-27T23:29:03.301Z,100716.63
2022-11-27T23:31:35.089Z,100720.28
2022-11-27T23:34:04.205Z,100709.59
2022-11-27T23:36:33.523Z,100720.56
2022-11-27T23:39:01.741Z,100708.19
2022-11-27T23:41:29.906Z,100703.31
2022-11-27T23:43:58.096Z,100705.31
2022-11-27T23:46:27.648Z,100706.28
2022-11-27T23:48:55.650Z,100707.75
2022-11-27T23:51:24.715Z,100699.25
2022-11-27T23:53:54.077Z,100693.31
2022-11-27T23:56:23.000Z,100699.50
2022-11-27T23:58:50.987Z,100695.84
